createdAt,value
2018-03-22T00:00:13.176Z,52.12
2018-03-22T00:02:45.790Z,51.99
2018-03-22T00:05:18.357Z,51.52
2018-03-22T00:07:50.950Z,51.99
2018-03-22T00:10:23.510Z,52.03
2018-03-22T00:12:56.080Z,52.99
2018-03-22T00:15:28.661Z,52.21
2018-03-22T00:18:01.228Z,52.06
2018-03-22T00:20:33.773Z,52.44
2018-03-22T00:23:06.344Z,52.92
2018-03-22T00:25:38.900Z,52.16
2018-03-22T00:28:11.489Z,52.32
2018-03-22T00:30:44.051Z,52.05
2018-03-22T00:33:16.614Z,52.21
2018-03-22T00:35:49.196Z,52.41
2018-03-22T00:38:21.766Z,52.64
2018-03-22T00:40:54.316Z,52.04
2018-03-22T00:43:26.876Z,51.85
2018-03-22T00:45:59.435Z,51.89
2018-03-22T00:48:32.002Z,51.75
2018-03-22T00:51:04.622Z,52.69
2018-03-22T00:53:37.192Z,52.01
2018-03-22T00:56:09.920Z,51.99
2018-03-22T00:58:42.492Z,51.87
2018-03-22T01:01:15.060Z,52.49
2018-03-22T01:03:47.628Z,52.40
2018-03-22T01:06:20.168Z,52.57
2018-03-22T01:08:52.803Z,52.49
2018-03-22T01:11:25.358Z,52.54
2018-03-22T01:13:57.944Z,52.44
2018-03-22T01:16:30.519Z,52.68
2018-03-22T01:19:03.093Z,53.38
2018-03-22T01:21:35.643Z,53.34
2018-03-22T01:24:08.206Z,52.55
2018-03-22T01:26:40.757Z,52.64
2018-03-22T01:29:13.344Z,52.88
2018-03-22T01:31:45.881Z,53.57
2018-03-22T01:34:18.461Z,52.79
2018-03-22T01:36:51.008Z,52.31
2018-03-22T01:39:23.583Z,52.48
2018-03-22T01:41:56.130Z,53.18
2018-03-22T01:44:28.756Z,52.63
2018-03-22T01:47:01.322Z,52.89
2018-03-22T01:49:33.887Z,52.75
2018-03-22T01:52:06.440Z,51.98
2018-03-22T01:54:39.012Z,53.06
2018-03-22T01:57:11.568Z,52.80
2018-03-22T01:59:44.149Z,52.46
2018-03-22T02:02:16.680Z,52.90
2018-03-22T02:04:49.245Z,52.77
2018-03-22T02:07:21.785Z,53.14
2018-03-22T02:09:54.381Z,52.41
2018-03-22T02:12:26.924Z,53.04
2018-03-22T02:14:59.498Z,53.34
2018-03-22T02:17:32.022Z,52.76
2018-03-22T02:20:04.575Z,52.58
2018-03-22T02:22:37.111Z,52.61
2018-03-22T02:25:09.719Z,52.88
2018-03-22T02:27:42.308Z,54.00
2018-03-22T02:30:14.889Z,54.03
2018-03-22T02:32:47.428Z,53.62
2018-03-22T02:35:20.000Z,54.66
2018-03-22T02:37:52.553Z,54.78
2018-03-22T02:40:25.130Z,55.05
2018-03-22T02:42:57.672Z,58.72
2018-03-22T02:45:30.258Z,56.95
2018-03-22T02:48:02.823Z,57.96
2018-03-22T02:50:35.414Z,56.87
2018-03-22T02:53:07.969Z,59.24
2018-03-22T02:55:40.543Z,58.24
2018-03-22T02:58:13.089Z,58.85
2018-03-22T03:00:45.656Z,58.61
2018-03-22T03:03:18.200Z,60.53
2018-03-22T03:05:50.778Z,58.13
2018-03-22T03:08:23.374Z,58.21
2018-03-22T03:10:55.968Z,59.47
2018-03-22T03:13:28.523Z,59.03
2018-03-22T03:16:01.091Z,60.38
2018-03-22T03:18:33.689Z,58.55
2018-03-22T03:21:06.261Z,58.88
2018-03-22T03:23:38.831Z,60.24
2018-03-22T03:26:11.401Z,61.72
2018-03-22T03:28:43.996Z,59.73
2018-03-22T03:31:16.568Z,62.33
2018-03-22T03:33:49.146Z,60.90
2018-03-22T03:36:21.696Z,60.02
2018-03-22T03:38:54.283Z,59.33
2018-03-22T03:41:26.923Z,59.34
2018-03-22T03:43:59.467Z,60.18
2018-03-22T03:46:32.019Z,59.20
2018-03-22T03:51:41.724Z,59.59
2018-03-22T03:54:14.305Z,60.09
2018-03-22T03:56:46.966Z,60.81
2018-03-22T03:59:19.494Z,61.29
2018-03-22T04:01:51.974Z,61.35
2018-03-22T04:04:24.498Z,61.64
2018-03-22T04:06:56.975Z,63.18
2018-03-22T04:09:29.476Z,61.48
2018-03-22T04:12:01.955Z,62.17
2018-03-22T04:14:34.458Z,62.11
2018-03-22T04:17:06.999Z,61.69
2018-03-22T04:19:39.726Z,61.40
2018-03-22T04:22:12.491Z,62.14
2018-03-22T04:24:45.071Z,61.48
2018-03-22T04:27:17.644Z,61.40
2018-03-22T04:29:50.162Z,62.94
2018-03-22T04:32:22.654Z,63.50
2018-03-22T04:34:55.178Z,62.83
2018-03-22T04:37:27.652Z,62.00
2018-03-22T04:40:00.155Z,61.51
2018-03-22T04:42:32.636Z,63.03
2018-03-22T04:45:05.138Z,61.98
2018-03-22T04:47:37.656Z,63.63
2018-03-22T04:50:10.440Z,62.40
2018-03-22T04:52:43.041Z,63.36
2018-03-22T04:55:15.577Z,64.64
2018-03-22T04:57:48.083Z,64.05
2018-03-22T05:00:20.669Z,62.56
2018-03-22T05:02:53.169Z,62.43
2018-03-22T05:05:25.673Z,66.35
2018-03-22T05:07:58.158Z,63.17
2018-03-22T05:10:30.646Z,63.43
2018-03-22T05:13:03.126Z,63.86
2018-03-22T05:15:40.353Z,64.69
2018-03-22T05:18:12.871Z,64.99
2018-03-22T05:20:45.379Z,64.67
2018-03-22T05:23:17.870Z,64.67
2018-03-22T05:25:50.366Z,66.95
2018-03-22T05:28:22.892Z,64.27
2018-03-22T05:30:55.396Z,63.56
2018-03-22T05:33:27.884Z,63.53
2018-03-22T05:36:00.379Z,62.49
2018-03-22T05:38:32.858Z,64.09
2018-03-22T05:41:05.359Z,63.36
2018-03-22T05:43:37.870Z,64.04
2018-03-22T05:46:10.612Z,63.68
2018-03-22T05:48:43.135Z,63.26
2018-03-22T05:51:15.670Z,64.97
2018-03-22T05:53:48.180Z,64.79
2018-03-22T05:56:20.682Z,63.98
2018-03-22T05:58:53.164Z,63.60
2018-03-22T06:01:25.662Z,63.92
2018-03-22T06:03:58.150Z,63.69
2018-03-22T06:06:30.643Z,64.32
2018-03-22T06:09:03.119Z,63.92
2018-03-22T06:11:35.622Z,63.69
2018-03-22T06:14:08.175Z,63.41
2018-03-22T06:16:40.706Z,63.33
2018-03-22T06:19:13.257Z,63.22
2018-03-22T06:21:45.799Z,64.45
2018-03-22T06:24:18.294Z,64.92
2018-03-22T06:26:50.802Z,63.92
2018-03-22T06:29:23.289Z,67.09
2018-03-22T06:31:55.798Z,65.42
2018-03-22T06:34:28.271Z,63.91
2018-03-22T06:37:00.779Z,64.00
2018-03-22T06:39:33.251Z,63.25
2018-03-22T06:42:05.754Z,63.29
2018-03-22T06:44:38.474Z,64.26
2018-03-22T06:47:11.215Z,64.41
2018-03-22T06:49:43.761Z,64.35
2018-03-22T06:52:16.303Z,64.59
2018-03-22T06:54:48.826Z,63.82
2018-03-22T06:57:21.367Z,63.33
2018-03-22T06:59:53.867Z,63.30
2018-03-22T07:02:26.368Z,65.70
2018-03-22T07:04:58.866Z,63.76
2018-03-22T07:07:31.350Z,64.57
2018-03-22T07:10:03.855Z,64.79
2018-03-22T07:12:36.336Z,63.72
2018-03-22T07:15:09.543Z,65.56
2018-03-22T07:17:42.094Z,63.99
2018-03-22T07:20:14.658Z,64.19
2018-03-22T07:22:47.211Z,63.53
2018-03-22T07:25:19.748Z,65.23
2018-03-22T07:27:52.242Z,63.62
2018-03-22T07:30:24.746Z,63.37
2018-03-22T07:32:57.222Z,63.00
2018-03-22T07:35:29.722Z,62.93
2018-03-22T07:38:02.199Z,64.03
2018-03-22T07:40:34.784Z,64.19
2018-03-22T07:43:12.860Z,63.46
2018-03-22T07:45:45.433Z,62.88
2018-03-22T07:48:17.950Z,62.65
2018-03-22T07:50:50.485Z,63.49
2018-03-22T07:53:22.970Z,63.23
2018-03-22T07:55:55.467Z,63.21
2018-03-22T07:58:27.945Z,63.00
2018-03-22T08:01:00.443Z,63.00
2018-03-22T08:03:32.921Z,63.39
2018-03-22T08:06:05.418Z,63.01
2018-03-22T08:08:37.973Z,62.71
2018-03-22T08:11:10.674Z,63.14
2018-03-22T08:13:45.332Z,63.65
2018-03-22T08:16:20.004Z,63.24
2018-03-22T08:18:52.492Z,63.80
2018-03-22T08:21:24.986Z,64.30
2018-03-22T08:23:57.461Z,64.02
2018-03-22T08:26:29.968Z,63.85
2018-03-22T08:29:02.453Z,64.57
2018-03-22T08:31:34.953Z,64.46
2018-03-22T08:34:07.859Z,64.42
2018-03-22T08:36:40.450Z,64.05
2018-03-22T08:39:13.011Z,64.21
2018-03-22T08:41:45.572Z,64.13
2018-03-22T08:44:18.091Z,64.57
2018-03-22T08:46:50.590Z,64.24
2018-03-22T08:49:23.062Z,64.06
2018-03-22T08:51:55.563Z,65.54
2018-03-22T08:54:28.042Z,65.17
2018-03-22T08:57:00.539Z,65.06
2018-03-22T08:59:33.014Z,65.08
2018-03-22T09:02:05.510Z,65.07
2018-03-22T09:04:38.023Z,65.02
2018-03-22T09:07:10.680Z,64.62
2018-03-22T09:09:43.317Z,64.03
2018-03-22T09:12:15.954Z,63.98
2018-03-22T09:14:48.453Z,64.15
2018-03-22T09:17:20.960Z,64.41
2018-03-22T09:19:53.434Z,64.56
2018-03-22T09:22:25.948Z,64.03
2018-03-22T09:24:58.430Z,64.80
2018-03-22T09:27:30.934Z,65.08
2018-03-22T09:30:03.411Z,64.99
2018-03-22T09:32:35.910Z,64.95
2018-03-22T09:35:08.835Z,64.88
2018-03-22T09:37:41.461Z,65.00
2018-03-22T09:40:14.030Z,64.35
2018-03-22T09:42:46.602Z,64.82
2018-03-22T09:45:19.143Z,64.91
2018-03-22T09:47:51.638Z,65.87
2018-03-22T09:50:24.119Z,65.22
2018-03-22T09:52:56.615Z,64.75
2018-03-22T09:55:29.106Z,64.62
2018-03-22T09:58:01.607Z,64.83
2018-03-22T10:00:34.092Z,64.77
2018-03-22T10:03:06.609Z,65.62
2018-03-22T10:05:39.235Z,65.87
2018-03-22T10:08:11.867Z,64.94
2018-03-22T10:10:44.377Z,65.61
2018-03-22T10:13:16.904Z,65.11
2018-03-22T10:15:49.402Z,64.48
2018-03-22T10:18:21.899Z,65.51
2018-03-22T10:20:54.378Z,64.94
2018-03-22T10:23:26.875Z,64.80
2018-03-22T10:25:59.378Z,64.96
2018-03-22T10:28:31.858Z,64.80
2018-03-22T10:31:04.359Z,64.64
2018-03-22T10:33:36.855Z,64.53
2018-03-22T10:36:09.433Z,64.29
2018-03-22T10:38:42.110Z,64.62
2018-03-22T10:41:14.666Z,64.95
2018-03-22T10:43:47.172Z,64.87
2018-03-22T10:46:19.699Z,64.80
2018-03-22T10:48:52.186Z,65.13
2018-03-22T10:51:24.686Z,65.19
2018-03-22T10:53:57.228Z,65.84
2018-03-22T10:56:29.682Z,65.58
2018-03-22T10:59:02.157Z,65.44
2018-03-22T11:01:40.423Z,64.61
2018-03-22T11:04:12.943Z,65.19
2018-03-22T11:06:45.444Z,64.94
2018-03-22T11:09:17.979Z,64.61
2018-03-22T11:11:50.475Z,65.48
2018-03-22T11:14:22.959Z,64.65
2018-03-22T11:16:55.464Z,65.50
2018-03-22T11:19:27.942Z,64.41
2018-03-22T11:22:00.438Z,63.90
2018-03-22T11:24:32.915Z,64.96
2018-03-22T11:27:05.420Z,64.70
2018-03-22T11:29:37.948Z,64.30
2018-03-22T11:32:10.747Z,65.78
2018-03-22T11:34:43.284Z,64.73
2018-03-22T11:37:15.877Z,64.84
2018-03-22T11:39:48.367Z,64.52
2018-03-22T11:42:20.875Z,64.46
2018-03-22T11:44:53.354Z,64.50
2018-03-22T11:47:25.846Z,64.35
2018-03-22T11:49:58.327Z,64.51
2018-03-22T11:52:30.826Z,64.50
2018-03-22T11:55:03.312Z,64.41
2018-03-22T11:57:35.810Z,64.31
2018-03-22T12:00:08.330Z,64.21
2018-03-22T12:02:40.954Z,64.25
2018-03-22T12:05:13.508Z,64.36
2018-03-22T12:07:46.062Z,64.03
2018-03-22T12:10:18.547Z,64.16
2018-03-22T12:12:51.046Z,64.50
2018-03-22T12:15:23.527Z,64.81
2018-03-22T12:17:56.035Z,64.15
2018-03-22T12:20:28.516Z,64.85
2018-03-22T12:23:01.019Z,64.48
2018-03-22T12:25:33.493Z,64.19
2018-03-22T12:28:05.994Z,64.54
2018-03-22T12:30:38.525Z,64.30
2018-03-22T12:33:11.064Z,64.70
2018-03-22T12:35:43.631Z,64.57
2018-03-22T12:38:16.167Z,64.60
2018-03-22T12:40:48.662Z,64.27
2018-03-22T12:43:21.233Z,64.72
2018-03-22T12:45:53.670Z,65.01
2018-03-22T12:48:26.174Z,65.12
2018-03-22T12:50:58.655Z,64.99
2018-03-22T12:53:31.158Z,65.11
2018-03-22T12:56:03.632Z,64.75
2018-03-22T12:58:36.134Z,64.55
2018-03-22T13:01:08.782Z,64.41
2018-03-22T13:03:41.510Z,63.75
2018-03-22T13:06:14.049Z,64.37
2018-03-22T13:08:46.646Z,63.85
2018-03-22T13:11:19.132Z,64.35
2018-03-22T13:13:51.630Z,64.31
2018-03-22T13:16:24.102Z,64.13
2018-03-22T13:18:56.602Z,64.42
2018-03-22T13:21:29.083Z,64.54
2018-03-22T13:24:01.584Z,64.29
2018-03-22T13:26:34.075Z,64.23
2018-03-22T13:29:06.574Z,64.43
2018-03-22T13:31:39.118Z,64.09
2018-03-22T13:34:11.694Z,63.81
2018-03-22T13:36:44.198Z,63.92
2018-03-22T13:39:16.766Z,63.96
2018-03-22T13:41:49.256Z,64.39
2018-03-22T13:44:21.766Z,64.51
2018-03-22T13:46:54.255Z,64.17
2018-03-22T13:49:26.766Z,64.31
2018-03-22T13:51:59.253Z,64.24
2018-03-22T13:54:31.750Z,64.42
2018-03-22T13:57:04.241Z,64.36
2018-03-22T13:59:36.741Z,64.71
2018-03-22T14:02:09.341Z,64.91
2018-03-22T14:04:41.880Z,64.60
2018-03-22T14:07:14.452Z,64.24
2018-03-22T14:09:46.962Z,63.82
2018-03-22T14:12:19.494Z,64.09
2018-03-22T14:14:51.966Z,64.09
2018-03-22T14:17:24.456Z,63.76
2018-03-22T14:19:56.934Z,63.37
2018-03-22T14:22:29.425Z,63.30
2018-03-22T14:25:01.907Z,63.36
2018-03-22T14:27:34.417Z,63.44
2018-03-22T14:30:06.920Z,63.61
2018-03-22T14:32:39.522Z,63.46
2018-03-22T14:35:12.046Z,62.77
2018-03-22T14:37:44.573Z,63.31
2018-03-22T14:40:17.071Z,63.09
2018-03-22T14:42:49.574Z,62.95
2018-03-22T14:45:22.046Z,62.55
2018-03-22T14:47:54.542Z,62.81
2018-03-22T14:50:27.023Z,62.54
2018-03-22T14:52:59.515Z,62.40
2018-03-22T14:55:31.998Z,62.21
2018-03-22T14:58:04.496Z,62.30
2018-03-22T15:00:36.968Z,62.32
2018-03-22T15:03:09.579Z,62.30
2018-03-22T15:05:42.110Z,62.59
2018-03-22T15:08:14.656Z,62.63
2018-03-22T15:10:47.155Z,62.74
2018-03-22T15:13:19.686Z,62.73
2018-03-22T15:15:52.159Z,62.75
2018-03-22T15:18:24.659Z,62.64
2018-03-22T15:20:57.140Z,61.95
2018-03-22T15:23:29.637Z,62.35
2018-03-22T15:26:02.124Z,62.38
2018-03-22T15:28:34.623Z,62.06
2018-03-22T15:31:07.129Z,62.62
2018-03-22T15:33:39.665Z,62.50
2018-03-22T15:36:12.247Z,62.13
2018-03-22T15:38:44.792Z,61.77
2018-03-22T15:41:17.317Z,61.97
2018-03-22T15:43:49.818Z,61.91
2018-03-22T15:46:22.299Z,61.75
2018-03-22T15:48:54.786Z,61.83
2018-03-22T15:51:27.254Z,61.56
2018-03-22T15:53:59.750Z,61.04
2018-03-22T15:56:32.222Z,61.81
2018-03-22T15:59:04.748Z,61.54
2018-03-22T16:01:37.258Z,61.38
2018-03-22T16:04:09.781Z,61.50
2018-03-22T16:06:42.317Z,61.51
2018-03-22T16:09:14.827Z,61.97
2018-03-22T16:11:47.349Z,62.65
2018-03-22T16:14:19.852Z,62.60
2018-03-22T16:16:52.322Z,62.14
2018-03-22T16:19:24.812Z,62.33
2018-03-22T16:21:57.282Z,62.15
2018-03-22T16:24:29.783Z,61.89
2018-03-22T16:27:02.259Z,62.31
2018-03-22T16:29:34.759Z,61.97
2018-03-22T16:32:07.251Z,61.87
2018-03-22T16:34:39.844Z,61.92
2018-03-22T16:37:12.347Z,61.84
2018-03-22T16:39:44.865Z,61.96
2018-03-22T16:42:17.366Z,61.79
2018-03-22T16:44:49.866Z,61.69
2018-03-22T16:47:22.355Z,61.59
2018-03-22T16:49:54.846Z,61.86
2018-03-22T16:52:27.322Z,61.52
2018-03-22T16:54:59.814Z,61.99
2018-03-22T16:57:32.289Z,62.25
2018-03-22T17:00:04.819Z,61.58
2018-03-22T17:02:37.312Z,62.09
2018-03-22T17:05:09.890Z,62.04
2018-03-22T17:07:42.431Z,62.06
2018-03-22T17:10:14.971Z,61.92
2018-03-22T17:12:47.561Z,61.76
2018-03-22T17:15:20.076Z,61.75
2018-03-22T17:17:52.572Z,62.03
2018-03-22T17:20:25.066Z,62.18
2018-03-22T17:22:57.534Z,62.14
2018-03-22T17:25:30.023Z,62.15
2018-03-22T17:28:02.490Z,62.19
2018-03-22T17:30:34.982Z,62.21
2018-03-22T17:33:07.476Z,62.26
2018-03-22T17:35:40.059Z,61.99
2018-03-22T17:38:12.592Z,61.92
2018-03-22T17:40:45.138Z,61.98
2018-03-22T17:43:17.650Z,62.31
2018-03-22T17:45:50.171Z,62.23
2018-03-22T17:48:22.687Z,61.86
2018-03-22T17:50:55.174Z,62.04
2018-03-22T17:53:27.677Z,61.89
2018-03-22T17:56:00.147Z,61.80
2018-03-22T17:58:32.630Z,62.04
2018-03-22T18:01:05.100Z,62.10
2018-03-22T18:03:37.664Z,61.85
2018-03-22T18:06:10.252Z,61.97
2018-03-22T18:08:42.809Z,61.94
2018-03-22T18:11:15.340Z,62.13
2018-03-22T18:13:47.878Z,61.94
2018-03-22T18:16:20.355Z,61.74
2018-03-22T18:18:52.851Z,61.77
2018-03-22T18:21:25.324Z,61.55
2018-03-22T18:23:57.812Z,61.73
2018-03-22T18:26:30.283Z,61.43
2018-03-22T18:29:02.775Z,61.50
2018-03-22T18:31:35.263Z,61.34
2018-03-22T18:34:07.895Z,61.34
2018-03-22T18:36:40.495Z,61.40
2018-03-22T18:39:13.164Z,61.35
2018-03-22T18:41:45.705Z,61.31
2018-03-22T18:44:18.256Z,61.14
2018-03-22T18:46:50.727Z,61.31
2018-03-22T18:49:23.236Z,61.47
2018-03-22T18:51:55.713Z,61.88
2018-03-22T18:54:28.219Z,62.07
2018-03-22T18:57:00.690Z,62.06
2018-03-22T18:59:33.181Z,61.84
2018-03-22T19:02:05.658Z,61.88
2018-03-22T19:04:38.220Z,61.62
2018-03-22T19:07:10.756Z,61.71
2018-03-22T19:09:43.434Z,61.63
2018-03-22T19:12:15.994Z,61.61
2018-03-22T19:14:48.599Z,61.69
2018-03-22T19:17:21.094Z,61.61
2018-03-22T19:19:53.582Z,61.44
2018-03-22T19:22:26.057Z,61.64
2018-03-22T19:24:58.551Z,61.27
2018-03-22T19:27:31.036Z,61.52
2018-03-22T19:30:03.529Z,61.55
2018-03-22T19:32:36.006Z,61.40
2018-03-22T19:35:08.615Z,61.32
2018-03-22T19:37:41.136Z,61.50
2018-03-22T19:40:13.665Z,61.64
2018-03-22T19:42:46.187Z,61.75
2018-03-22T19:45:18.706Z,61.88
2018-03-22T19:47:51.179Z,62.29
2018-03-22T19:50:23.694Z,62.33
2018-03-22T19:52:56.220Z,62.25
2018-03-22T19:55:28.812Z,62.13
2018-03-22T19:58:01.290Z,62.08
2018-03-22T20:00:33.790Z,62.10
2018-03-22T20:03:06.323Z,62.24
2018-03-22T20:05:38.911Z,62.38
2018-03-22T20:08:11.543Z,62.42
2018-03-22T20:10:44.492Z,62.24
2018-03-22T20:13:17.094Z,62.55
2018-03-22T20:15:49.631Z,62.43
2018-03-22T20:18:22.116Z,62.40
2018-03-22T20:20:54.751Z,62.31
2018-03-22T20:23:27.231Z,62.36
2018-03-22T20:25:59.743Z,62.75
2018-03-22T20:28:32.295Z,62.73
2018-03-22T20:31:04.839Z,62.91
2018-03-22T20:33:37.365Z,63.15
2018-03-22T20:36:09.976Z,63.11
2018-03-22T20:38:42.520Z,63.44
2018-03-22T20:41:15.174Z,63.52
2018-03-22T20:43:47.735Z,63.38
2018-03-22T20:46:20.246Z,63.50
2018-03-22T20:48:52.721Z,63.54
2018-03-22T20:51:25.223Z,63.51
2018-03-22T20:53:57.691Z,63.92
2018-03-22T20:56:30.186Z,64.14
2018-03-22T20:59:02.658Z,63.05
2018-03-22T21:01:35.146Z,62.85
2018-03-22T21:04:07.641Z,62.71
2018-03-22T21:06:40.224Z,62.50
2018-03-22T21:09:12.744Z,62.63
2018-03-22T21:11:45.286Z,63.06
2018-03-22T21:14:17.804Z,62.85
2018-03-22T21:16:50.315Z,62.94
2018-03-22T21:19:22.782Z,62.95
2018-03-22T21:21:55.276Z,62.97
2018-03-22T21:24:27.753Z,62.96
2018-03-22T21:27:00.246Z,62.84
2018-03-22T21:29:32.718Z,62.94
2018-03-22T21:32:05.214Z,62.94
2018-03-22T21:34:37.777Z,62.91
2018-03-22T21:37:10.417Z,62.95
2018-03-22T21:39:43.062Z,62.96
2018-03-22T21:42:15.762Z,62.95
2018-03-22T21:44:48.347Z,62.75
2018-03-22T21:47:32.435Z,62.66
2018-03-22T21:50:04.943Z,62.62
2018-03-22T21:52:43.455Z,62.68
2018-03-22T21:55:15.996Z,62.77
2018-03-22T21:57:48.535Z,62.71
2018-03-22T22:00:21.031Z,62.55
2018-03-22T22:02:53.505Z,62.57
2018-03-22T22:05:26.015Z,62.96
2018-03-22T22:07:58.541Z,62.94
2018-03-22T22:10:31.030Z,63.16
2018-03-22T22:13:03.510Z,62.88
2018-03-22T22:15:36.027Z,62.63
2018-03-22T22:18:09.533Z,62.64
2018-03-22T22:20:42.253Z,62.69
2018-03-22T22:23:14.763Z,62.67
2018-03-22T22:25:47.282Z,62.76
2018-03-22T22:28:19.832Z,62.71
2018-03-22T22:30:52.330Z,62.63
2018-03-22T22:33:24.804Z,62.49
2018-03-22T22:35:57.296Z,62.57
2018-03-22T22:38:29.774Z,62.45
2018-03-22T22:41:02.284Z,62.38
2018-03-22T22:43:34.754Z,62.40
2018-03-22T22:46:07.270Z,62.71
2018-03-22T22:48:39.913Z,62.94
2018-03-22T22:51:12.657Z,63.21
2018-03-22T22:53:45.207Z,63.11
2018-03-22T22:56:17.779Z,63.05
2018-03-22T22:58:50.299Z,62.74
2018-03-22T23:01:22.798Z,62.92
2018-03-22T23:03:55.272Z,63.09
2018-03-22T23:06:27.782Z,62.91
2018-03-22T23:09:00.258Z,62.91
2018-03-22T23:11:32.755Z,63.06
2018-03-22T23:14:05.223Z,63.12
2018-03-22T23:16:38.007Z,62.97
2018-03-22T23:19:10.681Z,62.74
2018-03-22T23:21:43.304Z,62.73
2018-03-22T23:24:15.864Z,62.79
2018-03-22T23:26:48.423Z,62.44
2018-03-22T23:29:20.894Z,62.16
2018-03-22T23:31:53.424Z,62.66
2018-03-22T23:34:25.895Z,62.55
2018-03-22T23:36:58.395Z,62.36
2018-03-22T23:39:30.865Z,62.12
2018-03-22T23:42:03.354Z,62.04
2018-03-22T23:44:35.818Z,61.86
2018-03-22T23:47:08.376Z,61.88
2018-03-22T23:49:40.990Z,61.96
2018-03-22T23:52:13.538Z,62.11
2018-03-22T23:54:46.146Z,62.10
2018-03-22T23:57:18.682Z,62.01
2018-03-22T23:59:51.178Z,61.79
